History Data

Date (GMT-7:00) CPM ACPM uSv/h Latitude Longitude Altitude CO CO2 TVOC HCHO Air Pressure Temperature Humidity Type
2025-12-13 07:21:35 19 18.30 0.095000 41.649648 41.62752893 0 0 0 0 0 0 0 0 STD5.60
2025-12-13 07:16:33 20 18.20 0.100000 41.649648 41.62752893 0 0 0 0 0 0 0 0 STD5.60
2025-12-13 07:11:31 20 17.10 0.100000 41.649648 41.62752893 0 0 0 0 0 0 0 0 STD5.60
2025-12-13 07:06:27 16 15.00 0.080000 41.649648 41.62752893 0 0 0 0 0 0 0 0 STD5.60
2025-12-13 07:01:27 18 14.30 0.090000 41.649648 41.62752893 0 0 0 0 0 0 0 0 STD5.60
2025-12-13 06:56:22 10 17.40 0.050000 41.649648 41.62752893 0 0 0 0 0 0 0 0 STD5.60
2025-12-13 06:51:20 19 18.40 0.095000 41.649648 41.62752893 0 0 0 0 0 0 0 0 STD5.60
2025-12-13 06:46:18 16 17.10 0.080000 41.649648 41.62752893 0 0 0 0 0 0 0 0 STD5.60
2025-12-13 06:41:16 16 15.70 0.080000 41.649648 41.62752893 0 0 0 0 0 0 0 0 STD5.60
2025-12-13 06:36:13 17 15.00 0.085000 41.649648 41.62752893 0 0 0 0 0 0 0 0 STD5.60
2025-12-13 06:31:11 14 16.90 0.070000 41.649648 41.62752893 0 0 0 0 0 0 0 0 STD5.60
2025-12-13 06:26:09 21 17.50 0.105000 41.649648 41.62752893 0 0 0 0 0 0 0 0 STD5.60
2025-12-13 06:21:07 18 15.20 0.090000 41.649648 41.62752893 0 0 0 0 0 0 0 0 STD5.60
2025-12-13 06:16:04 10 18.20 0.050000 41.649648 41.62752893 0 0 0 0 0 0 0 0 STD5.60
2025-12-13 06:11:03 19 19.70 0.095000 41.649648 41.62752893 0 0 0 0 0 0 0 0 STD5.60
2025-12-13 06:05:59 18 18.20 0.090000 41.649648 41.62752893 0 0 0 0 0 0 0 0 STD5.60
2025-12-13 06:00:57 20 19.90 0.100000 41.649648 41.62752893 0 0 0 0 0 0 0 0 STD5.60
2025-12-13 05:55:54 18 19.10 0.090000 41.649648 41.62752893 0 0 0 0 0 0 0 0 STD5.60
2025-12-13 05:50:52 10 15.60 0.050000 41.649648 41.62752893 0 0 0 0 0 0 0 0 STD5.60
2025-12-13 05:45:49 15 18.60 0.075000 41.649648 41.62752893 0 0 0 0 0 0 0 0 STD5.60
2025-12-13 05:40:47 19 19.50 0.095000 41.649648 41.62752893 0 0 0 0 0 0 0 0 STD5.60
2025-12-13 05:35:45 11 17.90 0.055000 41.649648 41.62752893 0 0 0 0 0 0 0 0 STD5.60
2025-12-13 05:30:43 20 19.10 0.100000 41.649648 41.62752893 0 0 0 0 0 0 0 0 STD5.60
2025-12-13 05:25:40 22 19.00 0.110000 41.649648 41.62752893 0 0 0 0 0 0 0 0 STD5.60
2025-12-13 05:20:38 23 18.40 0.115000 41.649648 41.62752893 0 0 0 0 0 0 0 0 STD5.60
2025-12-13 05:15:36 17 19.50 0.085000 41.649648 41.62752893 0 0 0 0 0 0 0 0 STD5.60
2025-12-13 05:10:34 22 18.90 0.110000 41.649648 41.62752893 0 0 0 0 0 0 0 0 STD5.60
2025-12-13 05:05:30 16 18.60 0.080000 41.649648 41.62752893 0 0 0 0 0 0 0 0 STD5.60
2025-12-13 05:00:28 10 19.20 0.050000 41.649648 41.62752893 0 0 0 0 0 0 0 0 STD5.60
2025-12-13 04:55:25 22 18.50 0.110000 41.649648 41.62752893 0 0 0 0 0 0 0 0 STD5.60
2025-12-13 04:50:23 22 17.80 0.110000 41.649648 41.62752893 0 0 0 0 0 0 0 0 STD5.60
2025-12-13 04:45:22 20 17.20 0.100000 41.649648 41.62752893 0 0 0 0 0 0 0 0 STD5.60
2025-12-13 04:40:19 26 16.00 0.130000 41.649648 41.62752893 0 0 0 0 0 0 0 0 STD5.60
2025-12-13 04:35:17 17 16.50 0.085000 41.649648 41.62752893 0 0 0 0 0 0 0 0 STD5.60
2025-12-13 04:30:15 19 20.40 0.095000 41.649648 41.62752893 0 0 0 0 0 0 0 0 STD5.60
2025-12-13 04:25:13 20 18.30 0.100000 41.649648 41.62752893 0 0 0 0 0 0 0 0 STD5.60
2025-12-13 04:20:12 15 16.50 0.075000 41.649648 41.62752893 0 0 0 0 0 0 0 0 STD5.60
2025-12-13 04:15:08 14 16.60 0.070000 41.649648 41.62752893 0 0 0 0 0 0 0 0 STD5.60
2025-12-13 04:10:07 15 17.10 0.075000 41.649648 41.62752893 0 0 0 0 0 0 0 0 STD5.60
2025-12-13 04:05:02 22 19.10 0.110000 41.649648 41.62752893 0 0 0 0 0 0 0 0 STD5.60
2025-12-13 04:00:01 25 16.40 0.125000 41.649648 41.62752893 0 0 0 0 0 0 0 0 STD5.60
2025-12-13 03:54:58 11 15.80 0.055000 41.649648 41.62752893 0 0 0 0 0 0 0 0 STD5.60
2025-12-13 03:49:56 13 17.20 0.065000 41.649648 41.62752893 0 0 0 0 0 0 0 0 STD5.60
2025-12-13 03:44:54 17 17.30 0.085000 41.649648 41.62752893 0 0 0 0 0 0 0 0 STD5.60
2025-12-13 03:39:52 16 18.90 0.080000 41.649648 41.62752893 0 0 0 0 0 0 0 0 STD5.60
2025-12-13 03:34:50 16 20.10 0.080000 41.649648 41.62752893 0 0 0 0 0 0 0 0 STD5.60
2025-12-13 03:29:47 19 17.50 0.095000 41.649648 41.62752893 0 0 0 0 0 0 0 0 STD5.60
2025-12-13 03:24:45 8 16.60 0.040000 41.649648 41.62752893 0 0 0 0 0 0 0 0 STD5.60
2025-12-13 03:19:43 17 17.10 0.085000 41.649648 41.62752893 0 0 0 0 0 0 0 0 STD5.60
2025-12-13 03:14:41 20 17.70 0.100000 41.649648 41.62752893 0 0 0 0 0 0 0 0 STD5.60
2025-12-13 03:09:39 21 18.10 0.105000 41.649648 41.62752893 0 0 0 0 0 0 0 0 STD5.60
2025-12-13 03:04:35 15 16.20 0.075000 41.649648 41.62752893 0 0 0 0 0 0 0 0 STD5.60
2025-12-13 02:59:32 14 16.20 0.070000 41.649648 41.62752893 0 0 0 0 0 0 0 0 STD5.60
2025-12-13 02:54:30 12 17.90 0.060000 41.649648 41.62752893 0 0 0 0 0 0 0 0 STD5.60
2025-12-13 02:49:28 18 18.20 0.090000 41.649648 41.62752893 0 0 0 0 0 0 0 0 STD5.60
2025-12-13 02:44:26 15 18.10 0.075000 41.649648 41.62752893 0 0 0 0 0 0 0 0 STD5.60
2025-12-13 02:39:23 11 17.60 0.055000 41.649648 41.62752893 0 0 0 0 0 0 0 0 STD5.60
2025-12-13 02:34:21 18 17.80 0.090000 41.649648 41.62752893 0 0 0 0 0 0 0 0 STD5.60
2025-12-13 02:29:19 18 17.60 0.090000 41.649648 41.62752893 0 0 0 0 0 0 0 0 STD5.60
2025-12-13 02:24:17 25 18.00 0.125000 41.649648 41.62752893 0 0 0 0 0 0 0 0 STD5.60
2025-12-13 02:19:15 22 18.90 0.110000 41.649648 41.62752893 0 0 0 0 0 0 0 0 STD5.60
2025-12-13 02:14:12 18 18.10 0.090000 41.649648 41.62752893 0 0 0 0 0 0 0 0 STD5.60
2025-12-13 02:09:11 16 17.40 0.080000 41.649648 41.62752893 0 0 0 0 0 0 0 0 STD5.60
2025-12-13 02:04:06 20 17.00 0.100000 41.649648 41.62752893 0 0 0 0 0 0 0 0 STD5.60
2025-12-13 01:59:04 19 16.60 0.095000 41.649648 41.62752893 0 0 0 0 0 0 0 0 STD5.60
2025-12-13 01:54:02 18 17.20 0.090000 41.649648 41.62752893 0 0 0 0 0 0 0 0 STD5.60
2025-12-13 01:48:59 18 18.00 0.090000 41.649648 41.62752893 0 0 0 0 0 0 0 0 STD5.60
2025-12-13 01:43:57 24 17.90 0.120000 41.649648 41.62752893 0 0 0 0 0 0 0 0 STD5.60
2025-12-13 01:38:55 16 18.90 0.080000 41.649648 41.62752893 0 0 0 0 0 0 0 0 STD5.60
2025-12-13 01:33:53 17 17.10 0.085000 41.649648 41.62752893 0 0 0 0 0 0 0 0 STD5.60
2025-12-13 01:28:51 12 15.80 0.060000 41.649648 41.62752893 0 0 0 0 0 0 0 0 STD5.60
2025-12-13 01:23:48 21 17.40 0.105000 41.649648 41.62752893 0 0 0 0 0 0 0 0 STD5.60
2025-12-13 01:18:46 24 18.00 0.120000 41.649648 41.62752893 0 0 0 0 0 0 0 0 STD5.60
2025-12-13 01:13:44 16 18.50 0.080000 41.649648 41.62752893 0 0 0 0 0 0 0 0 STD5.60
2025-12-13 01:08:42 14 20.00 0.070000 41.649648 41.62752893 0 0 0 0 0 0 0 0 STD5.60
2025-12-13 01:03:37 22 19.20 0.110000 41.649648 41.62752893 0 0 0 0 0 0 0 0 STD5.60
2025-12-13 00:58:34 17 16.30 0.085000 41.649648 41.62752893 0 0 0 0 0 0 0 0 STD5.60
2025-12-13 00:53:32 18 18.10 0.090000 41.649648 41.62752893 0 0 0 0 0 0 0 0 STD5.60
2025-12-13 00:48:30 20 19.70 0.100000 41.649648 41.62752893 0 0 0 0 0 0 0 0 STD5.60
2025-12-13 00:43:28 16 17.10 0.080000 41.649648 41.62752893 0 0 0 0 0 0 0 0 STD5.60
2025-12-13 00:38:25 12 16.80 0.060000 41.649648 41.62752893 0 0 0 0 0 0 0 0 STD5.60
2025-12-13 00:33:23 23 17.40 0.115000 41.649648 41.62752893 0 0 0 0 0 0 0 0 STD5.60
2025-12-13 00:28:21 14 16.80 0.070000 41.649648 41.62752893 0 0 0 0 0 0 0 0 STD5.60
2025-12-13 00:23:19 16 18.60 0.080000 41.649648 41.62752893 0 0 0 0 0 0 0 0 STD5.60
2025-12-13 00:18:17 24 19.70 0.120000 41.649648 41.62752893 0 0 0 0 0 0 0 0 STD5.60
2025-12-13 00:13:15 14 18.70 0.070000 41.649648 41.62752893 0 0 0 0 0 0 0 0 STD5.60
2025-12-13 00:08:12 18 16.40 0.090000 41.649648 41.62752893 0 0 0 0 0 0 0 0 STD5.60
2025-12-13 00:03:07 7 15.20 0.035000 41.649648 41.62752893 0 0 0 0 0 0 0 0 STD5.60
2025-12-12 23:58:05 12 15.20 0.060000 41.649648 41.62752893 0 0 0 0 0 0 0 0 STD5.60
2025-12-12 23:53:02 14 15.70 0.070000 41.649648 41.62752893 0 0 0 0 0 0 0 0 STD5.60
2025-12-12 23:48:00 12 17.80 0.060000 41.649648 41.62752893 0 0 0 0 0 0 0 0 STD5.60
2025-12-12 23:42:58 18 19.30 0.090000 41.649648 41.62752893 0 0 0 0 0 0 0 0 STD5.60
2025-12-12 23:37:56 27 18.20 0.135000 41.649648 41.62752893 0 0 0 0 0 0 0 0 STD5.60
2025-12-12 23:32:54 17 19.10 0.085000 41.649648 41.62752893 0 0 0 0 0 0 0 0 STD5.60
2025-12-12 23:27:51 22 18.60 0.110000 41.649648 41.62752893 0 0 0 0 0 0 0 0 STD5.60
2025-12-12 23:22:49 11 16.50 0.055000 41.649648 41.62752893 0 0 0 0 0 0 0 0 STD5.60
2025-12-12 23:17:47 16 17.70 0.080000 41.649648 41.62752893 0 0 0 0 0 0 0 0 STD5.60
2025-12-12 23:12:45 16 17.20 0.080000 41.649648 41.62752893 0 0 0 0 0 0 0 0 STD5.60
2025-12-12 23:07:40 24 17.90 0.120000 41.649648 41.62752893 0 0 0 0 0 0 0 0 STD5.60
2025-12-12 23:02:38 19 16.70 0.095000 41.649648 41.62752893 0 0 0 0 0 0 0 0 STD5.60
2025-12-12 22:57:36 13 15.80 0.065000 41.649648 41.62752893 0 0 0 0 0 0 0 0 STD5.60
2025-12-12 22:52:34 14 18.20 0.070000 41.649648 41.62752893 0 0 0 0 0 0 0 0 STD5.60
2025-12-12 22:47:31 23 17.60 0.115000 41.649648 41.62752893 0 0 0 0 0 0 0 0 STD5.60
2025-12-12 22:42:29 16 17.20 0.080000 41.649648 41.62752893 0 0 0 0 0 0 0 0 STD5.60
2025-12-12 22:37:27 22 18.40 0.110000 41.649648 41.62752893 0 0 0 0 0 0 0 0 STD5.60
2025-12-12 22:32:24 13 16.60 0.065000 41.649648 41.62752893 0 0 0 0 0 0 0 0 STD5.60
2025-12-12 22:27:22 16 18.10 0.080000 41.649648 41.62752893 0 0 0 0 0 0 0 0 STD5.60
2025-12-12 22:22:20 18 18.90 0.090000 41.649648 41.62752893 0 0 0 0 0 0 0 0 STD5.60
2025-12-12 22:17:18 9 16.60 0.045000 41.649648 41.62752893 0 0 0 0 0 0 0 0 STD5.60
2025-12-12 22:12:16 13 16.70 0.065000 41.649648 41.62752893 0 0 0 0 0 0 0 0 STD5.60
2025-12-12 22:07:12 19 18.00 0.095000 41.649648 41.62752893 0 0 0 0 0 0 0 0 STD5.60
2025-12-12 22:02:09 16 18.20 0.080000 41.649648 41.62752893 0 0 0 0 0 0 0 0 STD5.60
2025-12-12 21:57:07 18 18.90 0.090000 41.649648 41.62752893 0 0 0 0 0 0 0 0 STD5.60
2025-12-12 21:52:05 19 18.90 0.095000 41.649648 41.62752893 0 0 0 0 0 0 0 0 STD5.60
2025-12-12 21:47:02 32 18.90 0.160000 41.649648 41.62752893 0 0 0 0 0 0 0 0 STD5.60
2025-12-12 21:42:00 22 19.60 0.110000 41.649648 41.62752893 0 0 0 0 0 0 0 0 STD5.60
2025-12-12 21:36:58 27 17.30 0.135000 41.649648 41.62752893 0 0 0 0 0 0 0 0 STD5.60
2025-12-12 21:31:56 11 17.70 0.055000 41.649648 41.62752893 0 0 0 0 0 0 0 0 STD5.60
2025-12-12 21:26:54 19 19.60 0.095000 41.649648 41.62752893 0 0 0 0 0 0 0 0 STD5.60
2025-12-12 21:21:52 19 17.90 0.095000 41.649648 41.62752893 0 0 0 0 0 0 0 0 STD5.60
2025-12-12 21:16:50 17 17.40 0.085000 41.649648 41.62752893 0 0 0 0 0 0 0 0 STD5.60
2025-12-12 21:11:48 18 17.80 0.090000 41.649648 41.62752893 0 0 0 0 0 0 0 0 STD5.60
2025-12-12 21:06:43 18 18.30 0.090000 41.649648 41.62752893 0 0 0 0 0 0 0 0 STD5.60
2025-12-12 21:01:41 25 18.90 0.125000 41.649648 41.62752893 0 0 0 0 0 0 0 0 STD5.60
2025-12-12 20:56:39 20 17.50 0.100000 41.649648 41.62752893 0 0 0 0 0 0 0 0 STD5.60
2025-12-12 20:51:36 13 17.20 0.065000 41.649648 41.62752893 0 0 0 0 0 0 0 0 STD5.60
2025-12-12 20:46:34 19 17.40 0.095000 41.649648 41.62752893 0 0 0 0 0 0 0 0 STD5.60
2025-12-12 20:41:32 21 17.40 0.105000 41.649648 41.62752893 0 0 0 0 0 0 0 0 STD5.60
2025-12-12 20:36:30 17 17.20 0.085000 41.649648 41.62752893 0 0 0 0 0 0 0 0 STD5.60
2025-12-12 20:31:28 26 17.40 0.130000 41.649648 41.62752893 0 0 0 0 0 0 0 0 STD5.60
2025-12-12 20:26:25 17 17.80 0.085000 41.649648 41.62752893 0 0 0 0 0 0 0 0 STD5.60
2025-12-12 20:21:23 21 16.90 0.105000 41.649648 41.62752893 0 0 0 0 0 0 0 0 STD5.60
2025-12-12 20:16:21 22 16.30 0.110000 41.649648 41.62752893 0 0 0 0 0 0 0 0 STD5.60
2025-12-12 20:11:19 15 14.70 0.075000 41.649648 41.62752893 0 0 0 0 0 0 0 0 STD5.60
2025-12-12 20:06:15 11 16.50 0.055000 41.649648 41.62752893 0 0 0 0 0 0 0 0 STD5.60
2025-12-12 20:01:13 18 18.70 0.090000 41.649648 41.62752893 0 0 0 0 0 0 0 0 STD5.60
2025-12-12 19:56:10 26 17.30 0.130000 41.649648 41.62752893 0 0 0 0 0 0 0 0 STD5.60
2025-12-12 19:51:08 22 16.90 0.110000 41.649648 41.62752893 0 0 0 0 0 0 0 0 STD5.60
2025-12-12 19:46:07 16 18.90 0.080000 41.649648 41.62752893 0 0 0 0 0 0 0 0 STD5.60
2025-12-12 19:41:04 23 18.40 0.115000 41.649648 41.62752893 0 0 0 0 0 0 0 0 STD5.60
2025-12-12 19:36:01 17 16.40 0.085000 41.649648 41.62752893 0 0 0 0 0 0 0 0 STD5.60
2025-12-12 19:30:59 13 17.70 0.065000 41.649648 41.62752893 0 0 0 0 0 0 0 0 STD5.60
2025-12-12 19:25:57 17 18.80 0.085000 41.649648 41.62752893 0 0 0 0 0 0 0 0 STD5.60
2025-12-12 19:20:55 25 18.30 0.125000 41.649648 41.62752893 0 0 0 0 0 0 0 0 STD5.60
2025-12-12 19:15:53 21 17.90 0.105000 41.649648 41.62752893 0 0 0 0 0 0 0 0 STD5.60
2025-12-12 19:10:50 18 16.40 0.090000 41.649648 41.62752893 0 0 0 0 0 0 0 0 STD5.60
2025-12-12 19:05:46 16 16.50 0.080000 41.649648 41.62752893 0 0 0 0 0 0 0 0 STD5.60
2025-12-12 19:00:44 22 16.50 0.110000 41.649648 41.62752893 0 0 0 0 0 0 0 0 STD5.60
2025-12-12 18:55:45 16 16.20 0.080000 41.649648 41.62752893 0 0 0 0 0 0 0 0 STD5.60
2025-12-12 18:50:40 15 17.60 0.075000 41.649648 41.62752893 0 0 0 0 0 0 0 0 STD5.60
2025-12-12 18:45:38 18 19.30 0.090000 41.649648 41.62752893 0 0 0 0 0 0 0 0 STD5.60
2025-12-12 18:40:35 17 18.30 0.085000 41.649648 41.62752893 0 0 0 0 0 0 0 0 STD5.60
2025-12-12 18:35:33 24 17.30 0.120000 41.649648 41.62752893 0 0 0 0 0 0 0 0 STD5.60
2025-12-12 18:30:30 15 19.80 0.075000 41.649648 41.62752893 0 0 0 0 0 0 0 0 STD5.60
2025-12-12 18:25:28 27 20.00 0.135000 41.649648 41.62752893 0 0 0 0 0 0 0 0 STD5.60
2025-12-12 18:20:26 19 16.70 0.095000 41.649648 41.62752893 0 0 0 0 0 0 0 0 STD5.60
2025-12-12 18:15:24 16 14.50 0.080000 41.649648 41.62752893 0 0 0 0 0 0 0 0 STD5.60
2025-12-12 18:10:21 18 15.20 0.090000 41.649648 41.62752893 0 0 0 0 0 0 0 0 STD5.60
2025-12-12 18:05:17 22 17.20 0.110000 41.649648 41.62752893 0 0 0 0 0 0 0 0 STD5.60
2025-12-12 18:00:15 16 19.90 0.080000 41.649648 41.62752893 0 0 0 0 0 0 0 0 STD5.60
2025-12-12 17:55:13 24 17.90 0.120000 41.649648 41.62752893 0 0 0 0 0 0 0 0 STD5.60
2025-12-12 17:50:10 17 17.10 0.085000 41.649648 41.62752893 0 0 0 0 0 0 0 0 STD5.60
2025-12-12 17:45:10 21 18.10 0.105000 41.649648 41.62752893 0 0 0 0 0 0 0 0 STD5.60
2025-12-12 17:40:06 13 16.10 0.065000 41.649648 41.62752893 0 0 0 0 0 0 0 0 STD5.60
2025-12-12 17:35:04 16 15.30 0.080000 41.649648 41.62752893 0 0 0 0 0 0 0 0 STD5.60
2025-12-12 17:30:02 13 16.60 0.065000 41.649648 41.62752893 0 0 0 0 0 0 0 0 STD5.60
2025-12-12 17:24:59 17 18.60 0.085000 41.649648 41.62752893 0 0 0 0 0 0 0 0 STD5.60
2025-12-12 17:19:57 23 17.90 0.115000 41.649648 41.62752893 0 0 0 0 0 0 0 0 STD5.60
2025-12-12 17:14:55 18 20.20 0.090000 41.649648 41.62752893 0 0 0 0 0 0 0 0 STD5.60
2025-12-12 17:09:52 25 23.20 0.125000 41.649648 41.62752893 0 0 0 0 0 0 0 0 STD5.60
2025-12-12 17:04:48 30 21.30 0.150000 41.649648 41.62752893 0 0 0 0 0 0 0 0 STD5.60
2025-12-12 16:59:46 20 18.50 0.100000 41.649648 41.62752893 0 0 0 0 0 0 0 0 STD5.60
2025-12-12 16:54:44 20 17.80 0.100000 41.649648 41.62752893 0 0 0 0 0 0 0 0 STD5.60
2025-12-12 16:49:42 16 18.90 0.080000 41.649648 41.62752893 0 0 0 0 0 0 0 0 STD5.60
2025-12-12 16:44:40 16 18.70 0.080000 41.649648 41.62752893 0 0 0 0 0 0 0 0 STD5.60
2025-12-12 16:39:38 11 17.50 0.055000 41.649648 41.62752893 0 0 0 0 0 0 0 0 STD5.60
2025-12-12 16:34:35 17 16.50 0.085000 41.649648 41.62752893 0 0 0 0 0 0 0 0 STD5.60
2025-12-12 16:29:33 20 16.60 0.100000 41.649648 41.62752893 0 0 0 0 0 0 0 0 STD5.60
2025-12-12 16:24:31 21 18.70 0.105000 41.649648 41.62752893 0 0 0 0 0 0 0 0 STD5.60
2025-12-12 16:19:29 19 19.80 0.095000 41.649648 41.62752893 0 0 0 0 0 0 0 0 STD5.60
2025-12-12 16:14:27 11 18.60 0.055000 41.649648 41.62752893 0 0 0 0 0 0 0 0 STD5.60
2025-12-12 16:09:25 13 17.90 0.065000 41.649648 41.62752893 0 0 0 0 0 0 0 0 STD5.60
2025-12-12 16:04:20 25 18.40 0.125000 41.649648 41.62752893 0 0 0 0 0 0 0 0 STD5.60
2025-12-12 15:59:17 15 18.60 0.075000 41.649648 41.62752893 0 0 0 0 0 0 0 0 STD5.60
2025-12-12 15:54:15 13 18.60 0.065000 41.649648 41.62752893 0 0 0 0 0 0 0 0 STD5.60
2025-12-12 15:49:13 16 17.40 0.080000 41.649648 41.62752893 0 0 0 0 0 0 0 0 STD5.60
2025-12-12 15:44:11 14 16.50 0.070000 41.649648 41.62752893 0 0 0 0 0 0 0 0 STD5.60
2025-12-12 15:39:08 20 16.70 0.100000 41.649648 41.62752893 0 0 0 0 0 0 0 0 STD5.60
2025-12-12 15:34:06 19 17.40 0.095000 41.649648 41.62752893 0 0 0 0 0 0 0 0 STD5.60
2025-12-12 15:29:04 21 16.80 0.105000 41.649648 41.62752893 0 0 0 0 0 0 0 0 STD5.60
2025-12-12 15:24:02 12 14.30 0.060000 41.649648 41.62752893 0 0 0 0 0 0 0 0 STD5.60
2025-12-12 15:18:59 10 14.60 0.050000 41.649648 41.62752893 0 0 0 0 0 0 0 0 STD5.60
2025-12-12 15:13:57 12 18.10 0.060000 41.649648 41.62752893 0 0 0 0 0 0 0 0 STD5.60
2025-12-12 15:08:55 26 18.00 0.130000 41.649648 41.62752893 0 0 0 0 0 0 0 0 STD5.60
2025-12-12 15:03:50 14 18.00 0.070000 41.649648 41.62752893 0 0 0 0 0 0 0 0 STD5.60
2025-12-12 14:58:47 20 21.10 0.100000 41.649648 41.62752893 0 0 0 0 0 0 0 0 STD5.60
2025-12-12 14:53:45 16 19.60 0.080000 41.649648 41.62752893 0 0 0 0 0 0 0 0 STD5.60
2025-12-12 14:48:43 18 16.20 0.090000 41.649648 41.62752893 0 0 0 0 0 0 0 0 STD5.60
2025-12-12 14:43:41 14 17.30 0.070000 41.649648 41.62752893 0 0 0 0 0 0 0 0 STD5.60
2025-12-12 14:38:38 16 18.40 0.080000 41.649648 41.62752893 0 0 0 0 0 0 0 0 STD5.60
2025-12-12 14:33:37 15 16.40 0.075000 41.649648 41.62752893 0 0 0 0 0 0 0 0 STD5.60
2025-12-12 14:28:37 8 16.20 0.040000 41.649648 41.62752893 0 0 0 0 0 0 0 0 STD5.60
2025-12-12 14:23:32 14 18.60 0.070000 41.649648 41.62752893 0 0 0 0 0 0 0 0 STD5.60
2025-12-12 14:18:30 16 19.50 0.080000 41.649648 41.62752893 0 0 0 0 0 0 0 0 STD5.60
2025-12-12 14:13:27 22 19.70 0.110000 41.649648 41.62752893 0 0 0 0 0 0 0 0 STD5.60
2025-12-12 14:08:25 18 19.40 0.090000 41.649648 41.62752893 0 0 0 0 0 0 0 0 STD5.60
2025-12-12 14:03:21 20 18.40 0.100000 41.649648 41.62752893 0 0 0 0 0 0 0 0 STD5.60
2025-12-12 13:58:19 16 17.00 0.080000 41.649648 41.62752893 0 0 0 0 0 0 0 0 STD5.60
2025-12-12 13:53:17 20 17.60 0.100000 41.649648 41.62752893 0 0 0 0 0 0 0 0 STD5.60
2025-12-12 13:48:14 21 18.60 0.105000 41.649648 41.62752893 0 0 0 0 0 0 0 0 STD5.60
2025-12-12 13:43:12 20 18.70 0.100000 41.649648 41.62752893 0 0 0 0 0 0 0 0 STD5.60
2025-12-12 13:38:10 21 18.10 0.105000 41.649648 41.62752893 0 0 0 0 0 0 0 0 STD5.60
2025-12-12 13:33:08 18 16.80 0.090000 41.649648 41.62752893 0 0 0 0 0 0 0 0 STD5.60
2025-12-12 13:28:05 18 16.30 0.090000 41.649648 41.62752893 0 0 0 0 0 0 0 0 STD5.60
2025-12-12 13:23:03 17 16.70 0.085000 41.649648 41.62752893 0 0 0 0 0 0 0 0 STD5.60
2025-12-12 13:18:01 17 17.40 0.085000 41.649648 41.62752893 0 0 0 0 0 0 0 0 STD5.60
2025-12-12 13:12:59 17 15.80 0.085000 41.649648 41.62752893 0 0 0 0 0 0 0 0 STD5.60
2025-12-12 13:07:57 14 16.60 0.070000 41.649648 41.62752893 0 0 0 0 0 0 0 0 STD5.60
2025-12-12 13:02:53 15 20.40 0.075000 41.649648 41.62752893 0 0 0 0 0 0 0 0 STD5.60
2025-12-12 12:57:50 27 19.50 0.135000 41.649648 41.62752893 0 0 0 0 0 0 0 0 STD5.60
2025-12-12 12:52:49 19 17.40 0.095000 41.649648 41.62752893 0 0 0 0 0 0 0 0 STD5.60
2025-12-12 12:47:46 13 16.90 0.065000 41.649648 41.62752893 0 0 0 0 0 0 0 0 STD5.60
2025-12-12 12:42:45 14 19.10 0.070000 41.649648 41.62752893 0 0 0 0 0 0 0 0 STD5.60
2025-12-12 12:37:42 25 19.60 0.125000 41.649648 41.62752893 0 0 0 0 0 0 0 0 STD5.60
2025-12-12 12:32:40 15 16.60 0.075000 41.649648 41.62752893 0 0 0 0 0 0 0 0 STD5.60
2025-12-12 12:27:39 11 15.50 0.055000 41.649648 41.62752893 0 0 0 0 0 0 0 0 STD5.60
2025-12-12 12:22:36 20 17.50 0.100000 41.649648 41.62752893 0 0 0 0 0 0 0 0 STD5.60
2025-12-12 12:17:33 24 18.80 0.120000 41.649648 41.62752893 0 0 0 0 0 0 0 0 STD5.60
2025-12-12 12:12:31 22 14.30 0.110000 41.649648 41.62752893 0 0 0 0 0 0 0 0 STD5.60
2025-12-12 12:07:29 29 5.10 0.145000 41.649648 41.62752893 0 0 0 0 0 0 0 0 STD5.60
2025-12-12 12:02:25 20 19.30 0.100000 41.649648 41.62752893 0 0 0 0 0 0 0 0 STD5.60
2025-12-12 11:57:23 17 18.00 0.085000 41.649648 41.62752893 0 0 0 0 0 0 0 0 STD5.60
2025-12-12 11:52:21 24 18.60 0.120000 41.649648 41.62752893 0 0 0 0 0 0 0 0 STD5.60
2025-12-12 11:47:18 19 17.80 0.095000 41.649648 41.62752893 0 0 0 0 0 0 0 0 STD5.60
2025-12-12 11:42:16 11 15.50 0.055000 41.649648 41.62752893 0 0 0 0 0 0 0 0 STD5.60
2025-12-12 11:37:14 18 15.70 0.090000 41.649648 41.62752893 0 0 0 0 0 0 0 0 STD5.60
2025-12-12 11:32:12 10 18.80 0.050000 41.649648 41.62752893 0 0 0 0 0 0 0 0 STD5.60
2025-12-12 11:27:10 29 19.30 0.145000 41.649648 41.62752893 0 0 0 0 0 0 0 0 STD5.60
2025-12-12 11:22:07 23 19.90 0.115000 41.649648 41.62752893 0 0 0 0 0 0 0 0 STD5.60
2025-12-12 11:17:05 24 17.20 0.120000 41.649648 41.62752893 0 0 0 0 0 0 0 0 STD5.60
2025-12-12 11:12:03 14 15.70 0.070000 41.649648 41.62752893 0 0 0 0 0 0 0 0 STD5.60
2025-12-12 11:07:01 17 19.30 0.085000 41.649648 41.62752893 0 0 0 0 0 0 0 0 STD5.60
2025-12-12 11:01:57 16 18.90 0.080000 41.649648 41.62752893 0 0 0 0 0 0 0 0 STD5.60
2025-12-12 10:56:55 18 18.10 0.090000 41.649648 41.62752893 0 0 0 0 0 0 0 0 STD5.60
2025-12-12 10:51:52 17 17.40 0.085000 41.649648 41.62752893 0 0 0 0 0 0 0 0 STD5.60
2025-12-12 10:46:50 15 17.30 0.075000 41.649648 41.62752893 0 0 0 0 0 0 0 0 STD5.60
2025-12-12 10:41:48 18 16.60 0.090000 41.649648 41.62752893 0 0 0 0 0 0 0 0 STD5.60
2025-12-12 10:36:46 11 15.10 0.055000 41.649648 41.62752893 0 0 0 0 0 0 0 0 STD5.60
2025-12-12 10:31:44 17 15.80 0.085000 41.649648 41.62752893 0 0 0 0 0 0 0 0 STD5.60
2025-12-12 10:26:42 18 17.20 0.090000 41.649648 41.62752893 0 0 0 0 0 0 0 0 STD5.60
2025-12-12 10:21:39 14 17.60 0.070000 41.649648 41.62752893 0 0 0 0 0 0 0 0 STD5.60
2025-12-12 10:16:37 15 17.40 0.075000 41.649648 41.62752893 0 0 0 0 0 0 0 0 STD5.60
2025-12-12 10:11:35 24 16.40 0.120000 41.649648 41.62752893 0 0 0 0 0 0 0 0 STD5.60
2025-12-12 10:06:33 18 17.00 0.090000 41.649648 41.62752893 0 0 0 0 0 0 0 0 STD5.60
2025-12-12 10:01:29 15 18.40 0.075000 41.649648 41.62752893 0 0 0 0 0 0 0 0 STD5.60
2025-12-12 09:56:27 27 17.20 0.135000 41.649648 41.62752893 0 0 0 0 0 0 0 0 STD5.60
2025-12-12 09:51:25 16 17.50 0.080000 41.649648 41.62752893 0 0 0 0 0 0 0 0 STD5.60
2025-12-12 09:46:23 14 19.70 0.070000 41.649648 41.62752893 0 0 0 0 0 0 0 0 STD5.60
2025-12-12 09:41:20 23 19.20 0.115000 41.649648 41.62752893 0 0 0 0 0 0 0 0 STD5.60
2025-12-12 09:36:19 14 18.50 0.070000 41.649648 41.62752893 0 0 0 0 0 0 0 0 STD5.60
2025-12-12 09:31:16 17 17.30 0.085000 41.649648 41.62752893 0 0 0 0 0 0 0 0 STD5.60
2025-12-12 09:26:13 18 16.60 0.090000 41.649648 41.62752893 0 0 0 0 0 0 0 0 STD5.60
2025-12-12 09:21:11 17 17.30 0.085000 41.649648 41.62752893 0 0 0 0 0 0 0 0 STD5.60
2025-12-12 09:16:09 11 18.40 0.055000 41.649648 41.62752893 0 0 0 0 0 0 0 0 STD5.60
2025-12-12 09:11:08 21 19.50 0.105000 41.649648 41.62752893 0 0 0 0 0 0 0 0 STD5.60
2025-12-12 09:06:04 20 19.80 0.100000 41.649648 41.62752893 0 0 0 0 0 0 0 0 STD5.60
2025-12-12 09:00:58 17 18.70 0.085000 41.649648 41.62752893 0 0 0 0 0 0 0 0 STD5.60
2025-12-12 08:55:56 13 17.50 0.065000 41.649648 41.62752893 0 0 0 0 0 0 0 0 STD5.60
2025-12-12 08:50:53 11 17.70 0.055000 41.649648 41.62752893 0 0 0 0 0 0 0 0 STD5.60
2025-12-12 08:45:51 17 17.30 0.085000 41.649648 41.62752893 0 0 0 0 0 0 0 0 STD5.60
2025-12-12 08:40:50 21 18.50 0.105000 41.649648 41.62752893 0 0 0 0 0 0 0 0 STD5.60
2025-12-12 08:35:47 16 20.00 0.080000 41.649648 41.62752893 0 0 0 0 0 0 0 0 STD5.60
2025-12-12 08:30:45 21 17.90 0.105000 41.649648 41.62752893 0 0 0 0 0 0 0 0 STD5.60
2025-12-12 08:25:43 17 16.70 0.085000 41.649648 41.62752893 0 0 0 0 0 0 0 0 STD5.60
2025-12-12 08:20:41 22 18.10 0.110000 41.649648 41.62752893 0 0 0 0 0 0 0 0 STD5.60
2025-12-12 08:15:39 21 17.40 0.105000 41.649648 41.62752893 0 0 0 0 0 0 0 0 STD5.60
2025-12-12 08:10:37 19 17.30 0.095000 41.649648 41.62752893 0 0 0 0 0 0 0 0 STD5.60
2025-12-12 08:05:35 18 21.40 0.090000 41.649648 41.62752893 0 0 0 0 0 0 0 0 STD5.60
2025-12-12 08:00:20 18 19.70 0.090000 41.649648 41.62752893 0 0 0 0 0 0 0 0 STD5.60
2025-12-12 07:55:18 16 16.90 0.080000 41.649648 41.62752893 0 0 0 0 0 0 0 0 STD5.60
2025-12-12 07:50:16 12 18.80 0.060000 41.649648 41.62752893 0 0 0 0 0 0 0 0 STD5.60
2025-12-12 07:45:13 22 17.00 0.110000 41.649648 41.62752893 0 0 0 0 0 0 0 0 STD5.60
2025-12-12 07:40:12 12 17.40 0.060000 41.649648 41.62752893 0 0 0 0 0 0 0 0 STD5.60
2025-12-12 07:35:10 20 19.10 0.100000 41.649648 41.62752893 0 0 0 0 0 0 0 0 STD5.60
2025-12-12 07:30:08 17 19.20 0.085000 41.649648 41.62752893 0 0 0 0 0 0 0 0 STD5.60
2025-12-12 07:25:05 21 18.30 0.105000 41.649648 41.62752893 0 0 0 0 0 0 0 0 STD5.60
2025-12-12 07:20:04 17 16.70 0.085000 41.649648 41.62752893 0 0 0 0 0 0 0 0 STD5.60
2025-12-12 07:15:04 16 16.50 0.080000 41.649648 41.62752893 0 0 0 0 0 0 0 0 STD5.60
2025-12-12 07:10:00 19 17.10 0.095000 41.649648 41.62752893 0 0 0 0 0 0 0 0 STD5.60
2025-12-12 07:04:58 19 17.60 0.095000 41.649648 41.62752893 0 0 0 0 0 0 0 0 STD5.60
2025-12-12 06:59:53 12 16.00 0.060000 41.649648 41.62752893 0 0 0 0 0 0 0 0 STD5.60
2025-12-12 06:54:51 15 17.60 0.075000 41.649648 41.62752893 0 0 0 0 0 0 0 0 STD5.60
2025-12-12 06:49:49 12 17.90 0.060000 41.649648 41.62752893 0 0 0 0 0 0 0 0 STD5.60
2025-12-12 06:44:47 20 16.80 0.100000 41.649648 41.62752893 0 0 0 0 0 0 0 0 STD5.60
2025-12-12 06:39:45 14 17.30 0.070000 41.649648 41.62752893 0 0 0 0 0 0 0 0 STD5.60
2025-12-12 06:34:43 17 19.50 0.085000 41.649648 41.62752893 0 0 0 0 0 0 0 0 STD5.60
2025-12-12 06:29:41 32 20.30 0.160000 41.649648 41.62752893 0 0 0 0 0 0 0 0 STD5.60
2025-12-12 06:24:38 17 17.40 0.085000 41.649648 41.62752893 0 0 0 0 0 0 0 0 STD5.60
2025-12-12 06:19:37 15 16.40 0.075000 41.649648 41.62752893 0 0 0 0 0 0 0 0 STD5.60
2025-12-12 06:14:35 18 15.20 0.090000 41.649648 41.62752893 0 0 0 0 0 0 0 0 STD5.60
Geiger Counter World Map       A real time radiation map.     Copyright 2015 All rights reserved.